Terminal Aerodrome Forecast
Issued by NWS

Home | Current Version | Previous Version | Text Only | Print | Product List | Glossary On
Versions: 1 2 3 4 5 6 7 8 9 10 11 12 13 14 15 16 17 18 19
837
FTUS43 KSGF 181120
TAFBBG
TAF
KBBG 181120Z 1812/1912 18005KT P6SM FEW250
     FM181800 21008KT P6SM SCT250
     FM190600 19007KT P6SM BKN100 PROB30 1906/1910 P6SM TS BKN030CB=

USA.gov is the U.S. government's official web portal to all federal, state and local government web resources and services.